createdAt,value
2022-08-03T00:01:52.633Z,66.50
2022-08-03T00:04:19.795Z,66.30
2022-08-03T00:06:46.861Z,66.30
2022-08-03T00:09:13.988Z,66.80
2022-08-03T00:11:41.056Z,66.40
2022-08-03T00:14:09.808Z,66.30
2022-08-03T00:16:37.196Z,66.60
2022-08-03T00:19:04.798Z,66.50
2022-08-03T00:21:31.957Z,66.70
2022-08-03T00:23:58.980Z,66.80
2022-08-03T00:26:26.256Z,66.70
2022-08-03T00:28:53.652Z,66.70
2022-08-03T00:31:29.674Z,67.10
2022-08-03T00:34:11.280Z,67.30
2022-08-03T00:36:40.043Z,68.00
2022-08-03T00:39:06.993Z,67.30
2022-08-03T00:41:33.984Z,67.60
2022-08-03T00:44:01.149Z,67.60
2022-08-03T00:46:28.252Z,67.50
2022-08-03T00:48:55.298Z,67.50
2022-08-03T00:51:23.313Z,67.60
2022-08-03T00:53:51.252Z,67.60
2022-08-03T00:56:18.659Z,68.00
2022-08-03T00:58:47.358Z,68.40
2022-08-03T01:01:15.663Z,68.50
2022-08-03T01:03:42.801Z,68.80
2022-08-03T01:06:27.179Z,68.60
2022-08-03T01:09:12.680Z,69.40
2022-08-03T01:12:04.160Z,69.90
2022-08-03T01:14:41.813Z,69.10
2022-08-03T01:17:57.442Z,69.50
2022-08-03T01:20:27.755Z,69.10
2022-08-03T01:23:16.319Z,68.80
2022-08-03T01:26:36.862Z,69.90
2022-08-03T01:29:39.677Z,69.70
2022-08-03T01:32:58.041Z,69.70
2022-08-03T01:35:12.589Z,69.70
2022-08-03T01:37:52.309Z,69.60
2022-08-03T01:40:22.373Z,70.30
2022-08-03T01:42:52.184Z,69.70
2022-08-03T01:45:20.949Z,70.80
2022-08-03T01:47:49.937Z,70.00
2022-08-03T01:50:21.567Z,69.60
2022-08-03T01:52:50.180Z,69.50
2022-08-03T01:55:19.566Z,69.30
2022-08-03T01:58:05.819Z,69.90
2022-08-03T02:00:37.685Z,70.20
2022-08-03T02:03:09.937Z,70.30
2022-08-03T02:05:40.085Z,71.10
2022-08-03T02:08:13.853Z,70.00
2022-08-03T02:10:43.690Z,69.70
2022-08-03T02:13:11.343Z,69.80
2022-08-03T02:15:39.487Z,69.50
2022-08-03T02:18:10.676Z,69.60
2022-08-03T02:20:40.289Z,69.90
2022-08-03T02:23:07.884Z,70.10
2022-08-03T02:25:52.395Z,70.20
2022-08-03T02:28:22.941Z,71.30
2022-08-03T02:30:56.051Z,71.10
2022-08-03T02:33:31.999Z,71.50
2022-08-03T02:36:01.612Z,71.90
2022-08-03T02:38:36.561Z,71.50
2022-08-03T02:41:09.684Z,71.70
2022-08-03T02:43:56.777Z,71.70
2022-08-03T02:46:34.105Z,71.60
2022-08-03T02:49:41.359Z,71.90
2022-08-03T02:51:55.247Z,72.30
2022-08-03T02:54:25.165Z,71.50
2022-08-03T02:56:55.372Z,71.70
2022-08-03T02:59:23.599Z,71.80
2022-08-03T03:01:51.737Z,71.40
2022-08-03T03:04:19.296Z,71.40
2022-08-03T03:06:49.096Z,71.40
2022-08-03T03:09:17.603Z,71.40
2022-08-03T03:11:45.264Z,71.50
2022-08-03T03:14:13.568Z,71.40
2022-08-03T03:16:42.438Z,71.70
2022-08-03T03:19:13.392Z,71.90
2022-08-03T03:21:41.084Z,72.20
2022-08-03T03:24:10.430Z,72.10
2022-08-03T03:26:42.493Z,72.10
2022-08-03T03:29:10.090Z,72.30
2022-08-03T03:31:37.467Z,72.30
2022-08-03T03:34:05.185Z,72.40
2022-08-03T03:36:33.872Z,72.50
2022-08-03T03:39:15.941Z,72.50
2022-08-03T03:41:44.085Z,72.40
2022-08-03T03:44:11.152Z,72.30
2022-08-03T03:46:39.781Z,72.20
2022-08-03T03:49:07.676Z,72.30
2022-08-03T03:51:35.224Z,72.20
2022-08-03T03:54:07.114Z,72.20
2022-08-03T03:56:34.376Z,72.20
2022-08-03T03:59:01.526Z,72.20
2022-08-03T04:01:29.464Z,72.00
2022-08-03T04:03:56.563Z,72.30
2022-08-03T04:06:44.164Z,72.40
2022-08-03T04:09:30.075Z,72.60
2022-08-03T04:12:02.049Z,72.60
2022-08-03T04:14:34.075Z,74.00
2022-08-03T04:17:07.740Z,72.60
2022-08-03T04:19:40.882Z,72.90
2022-08-03T04:22:13.065Z,72.70
2022-08-03T04:24:47.132Z,73.20
2022-08-03T04:27:18.460Z,73.30
2022-08-03T04:29:49.689Z,73.50
2022-08-03T04:32:18.195Z,73.60
2022-08-03T04:34:45.889Z,73.50
2022-08-03T04:37:27.013Z,74.40
2022-08-03T04:39:58.923Z,73.80
2022-08-03T04:42:27.567Z,73.80
2022-08-03T04:45:00.783Z,73.50
2022-08-03T04:47:31.493Z,73.70
2022-08-03T04:50:00.569Z,73.70
2022-08-03T04:52:27.648Z,73.70
2022-08-03T04:54:54.601Z,73.70
2022-08-03T04:57:22.822Z,73.60
2022-08-03T05:00:01.255Z,73.70
2022-08-03T05:02:31.376Z,74.30
2022-08-03T05:04:59.193Z,73.70
2022-08-03T05:07:26.583Z,73.70
2022-08-03T05:10:16.517Z,73.70
2022-08-03T05:12:48.116Z,74.40
2022-08-03T05:15:16.033Z,73.50
2022-08-03T05:17:44.376Z,73.40
2022-08-03T05:20:12.860Z,73.40
2022-08-03T05:22:40.022Z,73.40
2022-08-03T05:25:07.843Z,73.40
2022-08-03T05:27:35.132Z,73.30
2022-08-03T05:30:29.652Z,73.40
2022-08-03T05:32:49.229Z,73.40
2022-08-03T05:36:01.565Z,73.30
2022-08-03T05:38:05.156Z,73.40
2022-08-03T05:40:32.992Z,73.20
2022-08-03T05:43:00.725Z,73.20
2022-08-03T05:45:28.806Z,73.10
2022-08-03T05:47:56.049Z,73.10
2022-08-03T05:50:24.117Z,73.10
2022-08-03T05:52:51.433Z,73.00
2022-08-03T05:55:19.135Z,73.10
2022-08-03T05:57:47.538Z,73.20
2022-08-03T06:00:16.984Z,73.20
2022-08-03T06:02:45.196Z,73.10
2022-08-03T06:05:12.240Z,73.10
2022-08-03T06:07:39.731Z,73.00
2022-08-03T06:10:36.528Z,73.90
2022-08-03T06:12:56.292Z,72.90
2022-08-03T06:15:23.497Z,73.00
2022-08-03T06:17:52.127Z,73.00
2022-08-03T06:20:21.066Z,73.00
2022-08-03T06:22:50.786Z,72.90
2022-08-03T06:25:21.292Z,73.00
2022-08-03T06:27:48.931Z,73.00
2022-08-03T06:30:21.121Z,72.80
2022-08-03T06:32:51.686Z,72.70
2022-08-03T06:35:20.378Z,72.70
2022-08-03T06:37:51.586Z,72.70
2022-08-03T06:40:29.120Z,72.50
2022-08-03T06:43:00.953Z,72.50
2022-08-03T06:45:31.815Z,72.60
2022-08-03T06:48:11.601Z,72.50
2022-08-03T06:50:41.739Z,72.20
2022-08-03T06:53:18.145Z,72.40
2022-08-03T06:55:51.147Z,72.30
2022-08-03T06:58:21.227Z,72.30
2022-08-03T07:00:48.417Z,71.90
2022-08-03T07:03:15.609Z,71.50
2022-08-03T07:05:48.082Z,71.30
2022-08-03T07:08:15.698Z,71.00
2022-08-03T07:10:43.505Z,70.90
2022-08-03T07:13:11.378Z,70.80
2022-08-03T07:15:55.654Z,70.50
2022-08-03T07:18:29.236Z,70.20
2022-08-03T07:20:58.354Z,70.00
2022-08-03T07:23:25.928Z,70.70
2022-08-03T07:25:53.111Z,69.70
2022-08-03T07:28:20.729Z,69.60
2022-08-03T07:30:48.097Z,69.30
2022-08-03T07:33:15.737Z,69.10
2022-08-03T07:35:42.851Z,68.90
2022-08-03T07:38:12.611Z,68.90
2022-08-03T07:40:44.435Z,68.70
2022-08-03T07:43:13.486Z,68.40
2022-08-03T07:45:40.458Z,69.20
2022-08-03T07:48:11.935Z,67.90
2022-08-03T07:50:39.649Z,67.80
2022-08-03T07:53:06.773Z,67.90
2022-08-03T07:55:35.229Z,67.60
2022-08-03T07:58:09.942Z,67.70
2022-08-03T08:00:37.569Z,67.20
2022-08-03T08:03:05.703Z,67.20
2022-08-03T08:05:33.882Z,67.00
2022-08-03T08:08:05.020Z,66.70
2022-08-03T08:10:32.884Z,66.30
2022-08-03T08:13:00.393Z,66.40
2022-08-03T08:15:28.091Z,66.00
2022-08-03T08:17:59.646Z,65.70
2022-08-03T08:20:37.921Z,65.30
2022-08-03T08:23:37.663Z,65.30
2022-08-03T08:25:56.150Z,65.30
2022-08-03T08:28:32.585Z,65.00
2022-08-03T08:31:02.120Z,64.60
2022-08-03T08:33:47.862Z,64.70
2022-08-03T08:36:16.988Z,64.20
2022-08-03T08:38:45.306Z,64.00
2022-08-03T08:41:14.679Z,63.80
2022-08-03T08:43:42.256Z,63.50
2022-08-03T08:46:23.589Z,63.40
2022-08-03T08:48:53.604Z,62.90
2022-08-03T08:51:22.569Z,63.00
2022-08-03T08:53:54.106Z,62.40
2022-08-03T08:56:26.034Z,62.00
2022-08-03T08:59:01.437Z,61.50
2022-08-03T09:01:30.724Z,61.30
2022-08-03T09:03:57.837Z,61.40
2022-08-03T09:06:25.169Z,61.30
2022-08-03T09:08:52.527Z,61.10
2022-08-03T09:12:00.918Z,61.00
2022-08-03T09:14:36.599Z,60.60
2022-08-03T09:17:04.551Z,60.10
2022-08-03T09:19:33.535Z,60.00
2022-08-03T09:22:18.631Z,59.20
2022-08-03T09:25:27.195Z,59.30
2022-08-03T09:27:54.509Z,59.50
2022-08-03T09:30:34.487Z,58.90
2022-08-03T09:33:08.740Z,58.60
2022-08-03T09:35:54.154Z,57.70
2022-08-03T09:38:27.449Z,57.90
2022-08-03T09:41:00.033Z,56.90
2022-08-03T09:43:28.485Z,57.10
2022-08-03T09:46:05.865Z,56.00
2022-08-03T09:48:37.271Z,54.90
2022-08-03T09:51:14.041Z,55.60
2022-08-03T09:53:59.702Z,55.40
2022-08-03T09:56:47.524Z,55.70
2022-08-03T09:59:28.289Z,56.10
2022-08-03T10:01:57.660Z,55.10
2022-08-03T10:04:25.556Z,54.70
2022-08-03T10:07:11.186Z,54.70
2022-08-03T10:09:38.687Z,56.30
2022-08-03T10:12:14.099Z,54.50
2022-08-03T10:14:45.548Z,54.00
2022-08-03T10:17:13.047Z,54.40
2022-08-03T10:19:41.553Z,54.00
2022-08-03T10:22:12.735Z,54.10
2022-08-03T10:24:54.693Z,53.50
2022-08-03T10:27:24.560Z,53.10
2022-08-03T10:29:55.809Z,52.40
2022-08-03T10:32:41.906Z,52.80
2022-08-03T10:35:21.549Z,51.90
2022-08-03T10:38:08.734Z,50.70
2022-08-03T10:40:48.539Z,51.50
2022-08-03T10:43:29.073Z,51.10
2022-08-03T10:45:58.105Z,51.20
2022-08-03T10:48:26.308Z,50.60
2022-08-03T10:50:54.073Z,50.50
2022-08-03T10:53:55.059Z,50.90
2022-08-03T10:56:53.556Z,51.80
2022-08-03T10:59:47.158Z,51.30
2022-08-03T11:02:15.700Z,51.10
2022-08-03T11:04:45.401Z,50.30
2022-08-03T11:07:25.537Z,49.40
2022-08-03T11:09:56.605Z,49.40
2022-08-03T11:12:32.269Z,49.20
2022-08-03T11:15:07.517Z,48.70
2022-08-03T11:17:45.712Z,48.10
2022-08-03T11:20:14.142Z,48.50
2022-08-03T11:22:54.137Z,48.90
2022-08-03T11:25:53.630Z,48.80
2022-08-03T11:28:28.553Z,47.90
2022-08-03T11:30:56.070Z,48.70
2022-08-03T11:33:30.703Z,48.00
2022-08-03T11:36:02.703Z,48.00
2022-08-03T11:38:30.020Z,46.20
2022-08-03T11:40:57.405Z,45.90
2022-08-03T11:43:31.559Z,46.60
2022-08-03T11:46:28.233Z,46.10
2022-08-03T11:49:10.315Z,46.90
2022-08-03T11:51:39.996Z,46.20
2022-08-03T11:54:07.363Z,45.70
2022-08-03T11:56:49.615Z,45.70
2022-08-03T11:59:22.120Z,46.00
2022-08-03T12:01:50.790Z,45.70
2022-08-03T12:04:17.908Z,46.00
2022-08-03T12:07:01.818Z,45.80
2022-08-03T12:09:28.992Z,46.20
2022-08-03T12:12:00.280Z,45.60
2022-08-03T12:14:49.910Z,43.80
2022-08-03T12:17:17.392Z,44.00
2022-08-03T12:19:45.435Z,44.40
2022-08-03T12:22:13.606Z,44.10
2022-08-03T12:24:42.757Z,43.80
2022-08-03T12:27:10.025Z,43.30
2022-08-03T12:29:37.314Z,43.80
2022-08-03T12:32:04.786Z,42.70
2022-08-03T12:34:48.913Z,43.40
2022-08-03T12:37:23.810Z,43.60
2022-08-03T12:40:01.328Z,41.40
2022-08-03T12:42:35.515Z,40.70
2022-08-03T12:45:25.592Z,40.90
2022-08-03T12:47:59.050Z,41.40
2022-08-03T12:50:31.936Z,39.40
2022-08-03T12:53:08.022Z,39.00
2022-08-03T12:55:40.206Z,38.30
2022-08-03T12:58:35.410Z,37.10
2022-08-03T13:01:09.975Z,36.90
2022-08-03T13:03:50.131Z,36.30
2022-08-03T13:06:25.401Z,36.00
2022-08-03T13:09:07.414Z,34.60
2022-08-03T13:11:55.848Z,34.50
2022-08-03T13:14:23.800Z,33.20
2022-08-03T13:16:51.509Z,32.20
2022-08-03T13:19:19.074Z,31.30
2022-08-03T13:22:01.333Z,31.60
2022-08-03T13:24:32.960Z,30.50
2022-08-03T13:27:02.806Z,30.80
2022-08-03T13:29:49.662Z,29.80
2022-08-03T13:32:16.946Z,29.30
2022-08-03T13:34:44.573Z,28.90
2022-08-03T13:37:12.202Z,28.40
2022-08-03T13:39:57.226Z,28.00
2022-08-03T13:42:26.348Z,27.30
2022-08-03T13:44:53.327Z,27.30
2022-08-03T13:47:20.998Z,27.00
2022-08-03T13:50:00.269Z,26.60
2022-08-03T13:52:34.633Z,26.00
2022-08-03T13:55:04.357Z,25.60
2022-08-03T13:58:02.453Z,25.10
2022-08-03T14:00:28.072Z,25.10
2022-08-03T14:03:09.216Z,25.00
2022-08-03T14:05:41.197Z,23.80
2022-08-03T14:08:08.735Z,24.40
2022-08-03T14:10:42.584Z,24.10
2022-08-03T14:13:12.976Z,23.20
2022-08-03T14:15:50.183Z,22.60
2022-08-03T14:18:29.048Z,23.20
2022-08-03T14:21:07.010Z,22.60
2022-08-03T14:23:37.400Z,22.70
2022-08-03T14:26:10.146Z,22.70
2022-08-03T14:28:37.381Z,22.20
2022-08-03T14:31:08.163Z,22.00
2022-08-03T14:33:43.367Z,21.40
2022-08-03T14:36:10.324Z,21.50
2022-08-03T14:38:37.313Z,21.30
2022-08-03T14:41:04.689Z,21.00
2022-08-03T14:43:33.869Z,20.60
2022-08-03T14:46:02.653Z,20.60
2022-08-03T14:50:30.416Z,20.50
2022-08-03T14:51:16.826Z,20.00
2022-08-03T14:53:43.841Z,19.90
2022-08-03T14:56:11.088Z,20.00
2022-08-03T14:58:39.109Z,20.00
2022-08-03T15:02:02.107Z,20.00
2022-08-03T15:03:54.907Z,20.00
2022-08-03T15:06:21.842Z,19.80
2022-08-03T15:09:13.629Z,19.70
2022-08-03T15:11:37.112Z,19.40
2022-08-03T15:14:09.024Z,19.70
2022-08-03T15:16:38.061Z,19.60
2022-08-03T15:19:59.448Z,19.50
2022-08-03T15:21:53.340Z,19.30
2022-08-03T15:24:20.832Z,19.20
2022-08-03T15:26:47.859Z,19.20
2022-08-03T15:30:06.700Z,19.00
2022-08-03T15:32:06.079Z,19.10
2022-08-03T15:34:35.882Z,19.00
2022-08-03T15:37:03.059Z,19.10
2022-08-03T15:40:00.118Z,18.90
2022-08-03T15:42:31.121Z,18.90
2022-08-03T15:44:58.493Z,18.90
2022-08-03T15:47:25.681Z,18.80
2022-08-03T15:49:53.545Z,18.90
2022-08-03T15:52:20.642Z,18.90
2022-08-03T15:54:47.676Z,18.80
2022-08-03T15:57:17.232Z,18.40
2022-08-03T15:59:44.311Z,18.50
2022-08-03T16:02:11.398Z,18.60
2022-08-03T16:04:38.387Z,18.70
2022-08-03T16:07:05.658Z,18.70
2022-08-03T16:09:42.127Z,18.70
2022-08-03T16:12:16.211Z,18.50
2022-08-03T16:14:52.820Z,18.50
2022-08-03T16:17:21.688Z,18.60
2022-08-03T16:19:49.098Z,18.60
2022-08-03T16:22:19.470Z,18.70
2022-08-03T16:24:47.154Z,18.40
2022-08-03T16:27:17.641Z,18.50
2022-08-03T16:30:01.888Z,18.40
2022-08-03T16:32:29.171Z,18.60
2022-08-03T16:34:56.152Z,18.50
2022-08-03T16:37:38.277Z,18.70
2022-08-03T16:40:18.925Z,19.10
2022-08-03T16:42:47.963Z,19.10
2022-08-03T16:45:15.052Z,19.20
2022-08-03T16:47:42.302Z,19.50
2022-08-03T16:50:15.777Z,20.10
2022-08-03T16:52:47.020Z,19.30
2022-08-03T16:55:18.358Z,19.10
2022-08-03T16:58:03.874Z,19.40
2022-08-03T17:00:45.529Z,19.30
2022-08-03T17:03:19.135Z,19.50
2022-08-03T17:05:52.242Z,19.40
2022-08-03T17:08:26.635Z,19.30
2022-08-03T17:10:55.791Z,19.60
2022-08-03T17:13:39.510Z,19.60
2022-08-03T17:16:15.295Z,19.80
2022-08-03T17:18:58.238Z,20.10
2022-08-03T17:21:39.127Z,20.10
2022-08-03T17:24:19.646Z,20.20
2022-08-03T17:26:51.084Z,20.30
2022-08-03T17:29:23.063Z,20.30
2022-08-03T17:31:54.745Z,21.00
2022-08-03T17:34:26.246Z,21.10
2022-08-03T17:37:22.095Z,20.90
2022-08-03T17:39:59.825Z,20.90
2022-08-03T17:42:32.084Z,21.20
2022-08-03T17:45:03.999Z,21.40
2022-08-03T17:47:41.813Z,22.00
2022-08-03T17:50:23.359Z,22.00
2022-08-03T17:53:07.482Z,22.80
2022-08-03T17:55:56.942Z,22.70
2022-08-03T17:58:55.111Z,23.50
2022-08-03T18:01:59.249Z,24.10
2022-08-03T18:04:42.169Z,24.80
2022-08-03T18:07:12.710Z,25.80
2022-08-03T18:10:04.944Z,25.90
2022-08-03T18:12:53.216Z,26.70
2022-08-03T18:15:47.508Z,26.10
2022-08-03T18:18:17.522Z,26.30
2022-08-03T18:21:06.706Z,28.00
2022-08-03T18:23:38.876Z,28.70
2022-08-03T18:26:12.026Z,29.00
2022-08-03T18:28:39.903Z,29.60
2022-08-03T18:31:12.862Z,30.10
2022-08-03T18:34:16.800Z,31.10
2022-08-03T18:36:50.481Z,31.50
2022-08-03T18:39:19.842Z,32.00
2022-08-03T18:41:47.036Z,32.50
2022-08-03T18:44:53.105Z,33.40
2022-08-03T18:47:51.530Z,34.10
2022-08-03T18:50:50.139Z,34.50
2022-08-03T18:54:02.143Z,33.60
2022-08-03T18:56:52.088Z,34.70
2022-08-03T18:59:49.977Z,35.20
2022-08-03T19:02:30.405Z,36.80
2022-08-03T19:05:07.966Z,36.10
2022-08-03T19:07:37.728Z,36.70
2022-08-03T19:10:10.356Z,36.90
2022-08-03T19:12:46.391Z,37.50
2022-08-03T19:15:15.599Z,38.10
2022-08-03T19:17:50.242Z,38.10
2022-08-03T19:20:30.771Z,39.30
2022-08-03T19:22:59.976Z,39.60
2022-08-03T19:25:35.433Z,39.60
2022-08-03T19:28:06.004Z,39.50
2022-08-03T19:30:40.258Z,40.30
2022-08-03T19:33:10.327Z,40.40
2022-08-03T19:35:54.678Z,40.20
2022-08-03T19:38:28.427Z,41.10
2022-08-03T19:41:17.943Z,40.40
2022-08-03T19:47:06.016Z,41.90
2022-08-03T19:50:02.797Z,40.50
2022-08-03T19:52:31.327Z,42.70
2022-08-03T19:55:00.518Z,42.70
2022-08-03T19:57:29.848Z,42.90
2022-08-03T19:59:58.200Z,43.00
2022-08-03T20:02:27.804Z,42.70
2022-08-03T20:04:59.639Z,42.70
2022-08-03T20:07:32.304Z,43.60
2022-08-03T20:10:02.128Z,43.60
2022-08-03T20:12:33.170Z,43.60
2022-08-03T20:15:05.609Z,43.60
2022-08-03T20:17:56.642Z,43.50
2022-08-03T20:20:25.784Z,44.20
2022-08-03T20:22:57.462Z,43.70
2022-08-03T20:25:37.605Z,44.50
2022-08-03T20:28:15.397Z,44.40
2022-08-03T20:30:46.361Z,45.20
2022-08-03T20:33:18.314Z,44.80
2022-08-03T20:35:48.911Z,45.00
2022-08-03T20:38:18.424Z,44.90
2022-08-03T20:40:49.942Z,45.00
2022-08-03T20:43:19.998Z,45.60
2022-08-03T20:45:59.188Z,45.50
2022-08-03T20:48:37.309Z,45.30
2022-08-03T20:51:19.310Z,45.40
2022-08-03T20:54:00.219Z,45.90
2022-08-03T20:56:34.086Z,45.70
2022-08-03T20:59:07.143Z,46.50
2022-08-03T21:01:42.148Z,46.70
2022-08-03T21:04:11.701Z,46.00
2022-08-03T21:06:53.437Z,46.20
2022-08-03T21:09:33.445Z,46.90
2022-08-03T21:12:15.461Z,47.30
2022-08-03T21:13:02.804Z,41.30
2022-08-03T21:15:04.623Z,47.10
2022-08-03T21:17:43.492Z,46.90
2022-08-03T21:20:13.170Z,47.30
2022-08-03T21:22:46.624Z,47.10
2022-08-03T21:25:16.568Z,48.10
2022-08-03T21:27:44.199Z,48.20
2022-08-03T21:30:12.380Z,48.30
2022-08-03T21:32:43.240Z,48.30
2022-08-03T21:35:11.963Z,48.80
2022-08-03T21:37:41.579Z,49.00
2022-08-03T21:40:12.304Z,48.40
2022-08-03T21:42:45.425Z,48.40
2022-08-03T21:45:17.326Z,48.90
2022-08-03T21:47:45.812Z,49.10
2022-08-03T21:50:14.123Z,48.70
2022-08-03T21:52:49.267Z,48.80
2022-08-03T21:55:18.422Z,49.00
2022-08-03T21:57:53.786Z,48.70
2022-08-03T22:00:23.204Z,49.30
2022-08-03T22:02:58.127Z,48.90
2022-08-03T22:05:42.935Z,49.30
2022-08-03T22:08:13.852Z,49.20
2022-08-03T22:10:44.333Z,49.40
2022-08-03T22:13:20.625Z,49.30
2022-08-03T22:16:04.355Z,49.50
2022-08-03T22:18:31.649Z,49.30
2022-08-03T22:20:59.938Z,49.40
2022-08-03T22:23:28.159Z,49.60
2022-08-03T22:25:58.255Z,49.70
2022-08-03T22:28:30.536Z,49.90
2022-08-03T22:30:59.323Z,50.10
2022-08-03T22:33:48.953Z,49.90
2022-08-03T22:36:21.465Z,50.00
2022-08-03T22:38:51.939Z,50.50
2022-08-03T22:41:20.257Z,50.00
2022-08-03T22:43:47.705Z,50.30
2022-08-03T22:46:18.695Z,50.30
2022-08-03T22:48:48.545Z,50.70
2022-08-03T22:51:16.476Z,50.60
2022-08-03T22:53:46.169Z,50.80
2022-08-03T22:56:13.945Z,51.10
2022-08-03T22:58:41.349Z,51.00
2022-08-03T23:01:11.996Z,51.20
2022-08-03T23:03:58.617Z,51.50
2022-08-03T23:06:35.697Z,51.90
2022-08-03T23:09:14.228Z,52.10
2022-08-03T23:11:45.900Z,52.10
2022-08-03T23:14:17.186Z,52.40
2022-08-03T23:16:46.760Z,52.50
2022-08-03T23:19:17.006Z,52.50
2022-08-03T23:22:00.132Z,52.70
2022-08-03T23:24:30.440Z,52.70
2022-08-03T23:26:59.228Z,53.20
2022-08-03T23:29:29.597Z,53.30
2022-08-03T23:31:58.029Z,53.60
2022-08-03T23:34:44.746Z,53.70
2022-08-03T23:37:17.771Z,53.80
2022-08-03T23:39:49.097Z,54.10
2022-08-03T23:42:20.182Z,54.00
2022-08-03T23:44:54.496Z,54.00
2022-08-03T23:47:22.199Z,53.70
2022-08-03T23:49:50.361Z,53.50
2022-08-03T23:52:33.683Z,53.80
2022-08-03T23:55:06.846Z,54.10
2022-08-03T23:57:49.131Z,54.20
